sensor_id;sensor_type;location;lat;lon;timestamp;P1;P2;P0
55857;PMS7003;41779;52.360;31.026;2022-11-27T00:04:37;7.8;4;2.5
55857;PMS7003;41779;52.360;31.026;2022-11-27T00:09:51;5.2;4.4;3.2
55857;PMS7003;41779;52.360;31.026;2022-11-27T00:14:19;7.2;4.6;4
55857;PMS7003;41779;52.360;31.026;2022-11-27T00:19:51;13;9.2;6.4
55857;PMS7003;41779;52.360;31.026;2022-11-27T00:24:13;17;13;9.8
55857;PMS7003;41779;52.360;31.026;2022-11-27T00:29:53;18.4;11.2;7.6
55857;PMS7003;41779;52.360;31.026;2022-11-27T00:34:27;11.2;7.4;5.6
55857;PMS7003;41779;52.360;31.026;2022-11-27T00:39:13;16.6;9.2;7
55857;PMS7003;41779;52.360;31.026;2022-11-27T00:44:13;13.8;8.8;5.8
55857;PMS7003;41779;52.360;31.026;2022-11-27T00:49:43;13;7.6;5.4
55857;PMS7003;41779;52.360;31.026;2022-11-27T00:54:37;38.4;26.2;15.8
55857;PMS7003;41779;52.360;31.026;2022-11-27T00:59:53;75.2;53;29.8
55857;PMS7003;41779;52.360;31.026;2022-11-27T01:04:19;81.2;56.8;32.8
55857;PMS7003;41779;52.360;31.026;2022-11-27T01:09:55;83;55;32.5
55857;PMS7003;41779;52.360;31.026;2022-11-27T01:14:39;45.6;31.8;20.2
55857;PMS7003;41779;52.360;31.026;2022-11-27T01:19:21;22.4;14.8;11
55857;PMS7003;41779;52.360;31.026;2022-11-27T01:24:55;13.6;9.8;7.8
55857;PMS7003;41779;52.360;31.026;2022-11-27T01:29:31;8.8;7.6;6.4
55857;PMS7003;41779;52.360;31.026;2022-11-27T01:34:57;11.2;7.8;6
55857;PMS7003;41779;52.360;31.026;2022-11-27T01:39:35;12.4;7.4;6.2
55857;PMS7003;41779;52.360;31.026;2022-11-27T01:44:51;16.6;9.8;6.4
55857;PMS7003;41779;52.360;31.026;2022-11-27T01:49:34;14.2;9.4;7
55857;PMS7003;41779;52.360;31.026;2022-11-27T01:54:13;17.8;13.2;9.6
55857;PMS7003;41779;52.360;31.026;2022-11-27T01:59:31;31;24;17
55857;PMS7003;41779;52.360;31.026;2022-11-27T02:04:45;41.2;28.8;17.6
55857;PMS7003;41779;52.360;31.026;2022-11-27T02:09:23;27;18.8;13.3
55857;PMS7003;41779;52.360;31.026;2022-11-27T02:14:56;22.4;16.2;12
55857;PMS7003;41779;52.360;31.026;2022-11-27T02:19:14;13.8;11.6;8.8
55857;PMS7003;41779;52.360;31.026;2022-11-27T02:24:59;11.4;8.8;6.8
55857;PMS7003;41779;52.360;31.026;2022-11-27T02:29:39;12;8.2;6
55857;PMS7003;41779;52.360;31.026;2022-11-27T02:34:48;14.8;10.6;7.6
55857;PMS7003;41779;52.360;31.026;2022-11-27T02:39:43;8.8;7.2;5.8
55857;PMS7003;41779;52.360;31.026;2022-11-27T02:44:33;10.8;5.8;4.4
55857;PMS7003;41779;52.360;31.026;2022-11-27T02:49:57;7.6;5.6;4.2
55857;PMS7003;41779;52.360;31.026;2022-11-27T02:54:33;9;6.2;5
55857;PMS7003;41779;52.360;31.026;2022-11-27T02:59:43;6.8;5;3.8
55857;PMS7003;41779;52.360;31.026;2022-11-27T03:04:42;7.2;6.4;4
55857;PMS7003;41779;52.360;31.026;2022-11-27T03:09:23;9.3;8;6
55857;PMS7003;41779;52.360;31.026;2022-11-27T03:14:31;16.4;14.2;10.2
55857;PMS7003;41779;52.360;31.026;2022-11-27T03:19:25;13.2;8.6;5.8
55857;PMS7003;41779;52.360;31.026;2022-11-27T03:24:35;8.8;6.2;5
55857;PMS7003;41779;52.360;31.026;2022-11-27T03:29:57;10.6;6.6;5.2
55857;PMS7003;41779;52.360;31.026;2022-11-27T03:34:13;11.4;7;5
55857;PMS7003;41779;52.360;31.026;2022-11-27T03:40:01;14.8;9.8;6.8
55857;PMS7003;41779;52.360;31.026;2022-11-27T03:44:54;12;8.6;7
55857;PMS7003;41779;52.360;31.026;2022-11-27T03:49:51;17;10.2;7.4
55857;PMS7003;41779;52.360;31.026;2022-11-27T03:54:48;13;10;7.4
55857;PMS7003;41779;52.360;31.026;2022-11-27T03:59:24;14.8;10.4;7.2
55857;PMS7003;41779;52.360;31.026;2022-11-27T04:04:33;8.6;6.8;4.6
55857;PMS7003;41779;52.360;31.026;2022-11-27T04:09:33;10.3;5.8;4.8
55857;PMS7003;41779;52.360;31.026;2022-11-27T04:14:43;10;8.2;5.6
55857;PMS7003;41779;52.360;31.026;2022-11-27T04:19:35;12.4;9.2;7.2
55857;PMS7003;41779;52.360;31.026;2022-11-27T04:24:13;12.6;10.2;7.2
55857;PMS7003;41779;52.360;31.026;2022-11-27T04:29:31;15.2;10;6.6
55857;PMS7003;41779;52.360;31.026;2022-11-27T04:34:51;15.8;10;7.2
55857;PMS7003;41779;52.360;31.026;2022-11-27T04:39:25;10.4;7.4;6.2
55857;PMS7003;41779;52.360;31.026;2022-11-27T04:44:59;6.2;5.6;4
55857;PMS7003;41779;52.360;31.026;2022-11-27T04:49:25;6.4;5.2;4.4
55857;PMS7003;41779;52.360;31.026;2022-11-27T04:55:01;6.4;5.6;4.4
55857;PMS7003;41779;52.360;31.026;2022-11-27T04:59:47;9.6;6;4.6
55857;PMS7003;41779;52.360;31.026;2022-11-27T05:04:51;10.2;5.8;4.6
55857;PMS7003;41779;52.360;31.026;2022-11-27T05:09:45;9;6;4.5
55857;PMS7003;41779;52.360;31.026;2022-11-27T05:14:23;12;8.6;6.2
55857;PMS7003;41779;52.360;31.026;2022-11-27T05:19:55;16;11.2;8.6
55857;PMS7003;41779;52.360;31.026;2022-11-27T05:24:31;17.4;11.2;8
55857;PMS7003;41779;52.360;31.026;2022-11-27T05:29:43;12;9.4;7
55857;PMS7003;41779;52.360;31.026;2022-11-27T05:34:37;12;8.6;6.6
55857;PMS7003;41779;52.360;31.026;2022-11-27T05:39:13;6.6;5.2;4
55857;PMS7003;41779;52.360;31.026;2022-11-27T05:44:13;8;6.6;5.2
55857;PMS7003;41779;52.360;31.026;2022-11-27T05:49:35;9.6;7.4;6.2
55857;PMS7003;41779;52.360;31.026;2022-11-27T05:54:35;11;8.4;6.2
55857;PMS7003;41779;52.360;31.026;2022-11-27T05:59:45;6.4;5;4.2
55857;PMS7003;41779;52.360;31.026;2022-11-27T06:04:13;7.4;6;4.8
55857;PMS7003;41779;52.360;31.026;2022-11-27T06:09:57;7.2;4.8;4.6
55857;PMS7003;41779;52.360;31.026;2022-11-27T06:14:15;6;3.8;3
55857;PMS7003;41779;52.360;31.026;2022-11-27T06:19:49;6.8;4.4;4.2
55857;PMS7003;41779;52.360;31.026;2022-11-27T06:24:47;13.8;10.8;8.2
55857;PMS7003;41779;52.360;31.026;2022-11-27T06:29:25;17;12;8.8
55857;PMS7003;41779;52.360;31.026;2022-11-27T06:34:59;17.4;12.2;8.8
55857;PMS7003;41779;52.360;31.026;2022-11-27T06:39:59;10.4;8.2;5.8
55857;PMS7003;41779;52.360;31.026;2022-11-27T06:44:59;6.6;5.6;4
55857;PMS7003;41779;52.360;31.026;2022-11-27T06:49:35;8.2;5.6;4.2
55857;PMS7003;41779;52.360;31.026;2022-11-27T06:54:33;7.2;4.6;2.8
55857;PMS7003;41779;52.360;31.026;2022-11-27T06:59:33;11.6;7.6;5.6
55857;PMS7003;41779;52.360;31.026;2022-11-27T07:04:59;7.8;4.8;4
55857;PMS7003;41779;52.360;31.026;2022-11-27T07:09:35;5.6;3.8;3.4
55857;PMS7003;41779;52.360;31.026;2022-11-27T07:14:47;5;4.8;3.8
55857;PMS7003;41779;52.360;31.026;2022-11-27T07:19:13;8;5.8;4.6
55857;PMS7003;41779;52.360;31.026;2022-11-27T07:24:59;7.4;6.6;5
55857;PMS7003;41779;52.360;31.026;2022-11-27T07:29:33;7.8;6;5.2
55857;PMS7003;41779;52.360;31.026;2022-11-27T07:34:47;11;7.8;6.2
55857;PMS7003;41779;52.360;31.026;2022-11-27T07:39:45;11.4;8.4;6.6
55857;PMS7003;41779;52.360;31.026;2022-11-27T07:44:13;9.6;8.8;6.8
55857;PMS7003;41779;52.360;31.026;2022-11-27T07:49:55;22.2;13;8.4
55857;PMS7003;41779;52.360;31.026;2022-11-27T07:54:55;14.8;11.8;9.2
55857;PMS7003;41779;52.360;31.026;2022-11-27T07:59:57;14.2;11.2;8
55857;PMS7003;41779;52.360;31.026;2022-11-27T08:04:13;13.2;9.4;7.4
55857;PMS7003;41779;52.360;31.026;2022-11-27T08:09:55;9.4;6.4;5.4
55857;PMS7003;41779;52.360;31.026;2022-11-27T08:14:25;10;6.8;5.3
55857;PMS7003;41779;52.360;31.026;2022-11-27T08:19:55;11.8;9.2;6.8
55857;PMS7003;41779;52.360;31.026;2022-11-27T08:24:13;9.6;7;5.8
55857;PMS7003;41779;52.360;31.026;2022-11-27T08:29:47;10.6;8.8;6.8
55857;PMS7003;41779;52.360;31.026;2022-11-27T08:34:33;12;10;7.6
55857;PMS7003;41779;52.360;31.026;2022-11-27T08:39:59;10.2;9.4;6.8
55857;PMS7003;41779;52.360;31.026;2022-11-27T08:44:31;10.2;8;6.6
55857;PMS7003;41779;52.360;31.026;2022-11-27T08:49:49;10.4;9.2;6.4
55857;PMS7003;41779;52.360;31.026;2022-11-27T08:54:47;12.2;9.8;7.8
55857;PMS7003;41779;52.360;31.026;2022-11-27T08:59:13;11;9.8;6.8
55857;PMS7003;41779;52.360;31.026;2022-11-27T09:04:59;10.8;8.6;6.4
55857;PMS7003;41779;52.360;31.026;2022-11-27T09:09:57;11.6;6.8;5.2
55857;PMS7003;41779;52.360;31.026;2022-11-27T09:14:59;11.8;7;6
55857;PMS7003;41779;52.360;31.026;2022-11-27T09:19:33;11.6;8.4;7
55857;PMS7003;41779;52.360;31.026;2022-11-27T09:24:25;9;5.8;5
55857;PMS7003;41779;52.360;31.026;2022-11-27T09:29:33;9.6;5.8;4.8
55857;PMS7003;41779;52.360;31.026;2022-11-27T09:34:57;10.4;8.2;6.4
55857;PMS7003;41779;52.360;31.026;2022-11-27T09:39:33;10.6;7.2;5.8
55857;PMS7003;41779;52.360;31.026;2022-11-27T09:44:48;12;7.4;5.8
55857;PMS7003;41779;52.360;31.026;2022-11-27T09:49:23;11.4;6.8;5.6
55857;PMS7003;41779;52.360;31.026;2022-11-27T09:54:55;13.4;8.4;6
55857;PMS7003;41779;52.360;31.026;2022-11-27T09:59:13;9.2;7.2;5.6
55857;PMS7003;41779;52.360;31.026;2022-11-27T10:04:49;13.4;9.2;7
55857;PMS7003;41779;52.360;31.026;2022-11-27T10:09:51;10.8;6.8;5.8
55857;PMS7003;41779;52.360;31.026;2022-11-27T10:14:29;14.5;8.8;5.8
55857;PMS7003;41779;52.360;31.026;2022-11-27T10:19:38;11.2;9.2;7.2
55857;PMS7003;41779;52.360;31.026;2022-11-27T10:24:59;14;10.2;8.2
55857;PMS7003;41779;52.360;31.026;2022-11-27T10:29:53;14;9.6;7.2
55857;PMS7003;41779;52.360;31.026;2022-11-27T10:34:33;25.6;16.4;11.6
55857;PMS7003;41779;52.360;31.026;2022-11-27T10:39:25;24;17;12
55857;PMS7003;41779;52.360;31.026;2022-11-27T10:44:44;16.4;10.6;7.4
55857;PMS7003;41779;52.360;31.026;2022-11-27T10:49:13;10.8;8;6
55857;PMS7003;41779;52.360;31.026;2022-11-27T10:55:02;7.6;5.4;3.8
55857;PMS7003;41779;52.360;31.026;2022-11-27T10:59:48;10.2;6.2;4.6
55857;PMS7003;41779;52.360;31.026;2022-11-27T11:04:26;6;4.8;3.4
55857;PMS7003;41779;52.360;31.026;2022-11-27T11:09:33;6.6;5.2;4.6
55857;PMS7003;41779;52.360;31.026;2022-11-27T11:14:48;7.2;4.8;3.8
55857;PMS7003;41779;52.360;31.026;2022-11-27T11:19:47;11.3;8;5.7
55857;PMS7003;41779;52.360;31.026;2022-11-27T11:24:37;15.8;11;8.2
55857;PMS7003;41779;52.360;31.026;2022-11-27T11:29:17;22.4;15.4;10.8
55857;PMS7003;41779;52.360;31.026;2022-11-27T11:34:15;21.8;16.4;11.4
55857;PMS7003;41779;52.360;31.026;2022-11-27T11:39:51;20.6;16;10.8
55857;PMS7003;41779;52.360;31.026;2022-11-27T11:44:28;31.4;20;12
55857;PMS7003;41779;52.360;31.026;2022-11-27T11:50:01;26.8;20.6;11.6
55857;PMS7003;41779;52.360;31.026;2022-11-27T11:54:29;23;16.2;11
55857;PMS7003;41779;52.360;31.026;2022-11-27T11:59:25;29;18.2;12
55857;PMS7003;41779;52.360;31.026;2022-11-27T12:04:37;20.2;13.6;9.4
55857;PMS7003;41779;52.360;31.026;2022-11-27T12:10:00;16.6;13.2;9
55857;PMS7003;41779;52.360;31.026;2022-11-27T12:14:55;14.8;10.8;7.8
55857;PMS7003;41779;52.360;31.026;2022-11-27T12:19:30;12.8;9.8;6.8
55857;PMS7003;41779;52.360;31.026;2022-11-27T12:24:35;14.2;10.6;8.6
55857;PMS7003;41779;52.360;31.026;2022-11-27T12:29:51;19.4;14.6;11
55857;PMS7003;41779;52.360;31.026;2022-11-27T12:34:50;24.6;18.2;11
55857;PMS7003;41779;52.360;31.026;2022-11-27T12:39:37;26.8;20.6;14
55857;PMS7003;41779;52.360;31.026;2022-11-27T12:44:27;32.2;23;16
55857;PMS7003;41779;52.360;31.026;2022-11-27T12:49:26;38.4;27.2;17.4
55857;PMS7003;41779;52.360;31.026;2022-11-27T12:54:50;39.6;27.4;18
55857;PMS7003;41779;52.360;31.026;2022-11-27T12:59:38;40.6;31.4;18.2
55857;PMS7003;41779;52.360;31.026;2022-11-27T13:05:02;31.8;24.2;14.8
55857;PMS7003;41779;52.360;31.026;2022-11-27T13:09:15;24.4;18.2;13.2
55857;PMS7003;41779;52.360;31.026;2022-11-27T13:14:14;19.8;13.8;10.6
55857;PMS7003;41779;52.360;31.026;2022-11-27T13:19:33;18.8;15.3;10.8
55857;PMS7003;41779;52.360;31.026;2022-11-27T13:25:01;15.8;12;9.2
55857;PMS7003;41779;52.360;31.026;2022-11-27T13:29:59;15.2;11.8;9.2
55857;PMS7003;41779;52.360;31.026;2022-11-27T13:34:25;15.2;11;8.6
55857;PMS7003;41779;52.360;31.026;2022-11-27T13:39:27;26.2;19;13.6
55857;PMS7003;41779;52.360;31.026;2022-11-27T13:44:27;20.4;14.8;9.8
55857;PMS7003;41779;52.360;31.026;2022-11-27T13:49:55;19.4;14.8;9.2
55857;PMS7003;41779;52.360;31.026;2022-11-27T13:54:25;17.2;12;8
55857;PMS7003;41779;52.360;31.026;2022-11-27T13:59:14;11.4;8.2;5.8
55857;PMS7003;41779;52.360;31.026;2022-11-27T14:04:13;16.6;12.2;8.4
55857;PMS7003;41779;52.360;31.026;2022-11-27T14:09:48;22.4;17;12.6
55857;PMS7003;41779;52.360;31.026;2022-11-27T14:14:24;25;17;12
55857;PMS7003;41779;52.360;31.026;2022-11-27T14:19:58;22.5;15.5;10.3
55857;PMS7003;41779;52.360;31.026;2022-11-27T14:24:26;25.8;18.2;12
55857;PMS7003;41779;52.360;31.026;2022-11-27T14:29:27;24.4;19;13.8
55857;PMS7003;41779;52.360;31.026;2022-11-27T14:34:25;16.8;13;9.8
55857;PMS7003;41779;52.360;31.026;2022-11-27T14:39:59;14;11.4;9
55857;PMS7003;41779;52.360;31.026;2022-11-27T14:45:02;10.6;7.2;6.4
55857;PMS7003;41779;52.360;31.026;2022-11-27T14:49:35;7;5;4
55857;PMS7003;41779;52.360;31.026;2022-11-27T14:54:22;7.4;5;4.2
55857;PMS7003;41779;52.360;31.026;2022-11-27T14:59:47;8.2;5.2;4.6
55857;PMS7003;41779;52.360;31.026;2022-11-27T15:04:47;10.6;7;5.2
55857;PMS7003;41779;52.360;31.026;2022-11-27T15:09:24;9;6.2;5.6
55857;PMS7003;41779;52.360;31.026;2022-11-27T15:15:00;8.4;7.8;5.6
55857;PMS7003;41779;52.360;31.026;2022-11-27T15:19:26;11;8.8;6.8
55857;PMS7003;41779;52.360;31.026;2022-11-27T15:24:56;14.4;8;6.2
55857;PMS7003;41779;52.360;31.026;2022-11-27T15:29:23;19;11.4;8.2
55857;PMS7003;41779;52.360;31.026;2022-11-27T15:35:10;18.2;12.6;10.8
55857;PMS7003;41779;52.360;31.026;2022-11-27T15:39:26;19;15;11.8
55857;PMS7003;41779;52.360;31.026;2022-11-27T15:44:13;20.6;16.6;12.4
55857;PMS7003;41779;52.360;31.026;2022-11-27T15:49:49;17.4;15;11
55857;PMS7003;41779;52.360;31.026;2022-11-27T15:54:53;10;7.2;5.2
55857;PMS7003;41779;52.360;31.026;2022-11-27T16:00:03;10.8;8;6.6
55857;PMS7003;41779;52.360;31.026;2022-11-27T16:05:01;11.4;7.8;5.4
55857;PMS7003;41779;52.360;31.026;2022-11-27T16:09:25;15.4;8.6;5.8
55857;PMS7003;41779;52.360;31.026;2022-11-27T16:14:45;15.2;10.8;8
55857;PMS7003;41779;52.360;31.026;2022-11-27T16:19:47;16.5;11;7
55857;PMS7003;41779;52.360;31.026;2022-11-27T16:24:33;10.6;8;5.2
55857;PMS7003;41779;52.360;31.026;2022-11-27T16:29:59;16.4;10.6;7.2
55857;PMS7003;41779;52.360;31.026;2022-11-27T16:34:13;17.8;11.2;7
55857;PMS7003;41779;52.360;31.026;2022-11-27T16:39:59;16.2;12.2;7.8
55857;PMS7003;41779;52.360;31.026;2022-11-27T16:44:35;11;6.2;4.6
55857;PMS7003;41779;52.360;31.026;2022-11-27T16:49:59;9.4;4.8;3.8
55857;PMS7003;41779;52.360;31.026;2022-11-27T16:54:35;5.2;3.2;2.4
55857;PMS7003;41779;52.360;31.026;2022-11-27T16:59:13;6;3.8;2.4
55857;PMS7003;41779;52.360;31.026;2022-11-27T17:04:25;8;6.4;4.6
55857;PMS7003;41779;52.360;31.026;2022-11-27T17:09:51;10.6;7.6;5.8
55857;PMS7003;41779;52.360;31.026;2022-11-27T17:15:02;7.2;5.4;4.2
55857;PMS7003;41779;52.360;31.026;2022-11-27T17:20:01;10.4;6.8;5
55857;PMS7003;41779;52.360;31.026;2022-11-27T17:24:13;10.3;7.8;5.8
55857;PMS7003;41779;52.360;31.026;2022-11-27T17:29:47;10.8;7.2;5
55857;PMS7003;41779;52.360;31.026;2022-11-27T17:34:45;7.6;5.8;4.6
55857;PMS7003;41779;52.360;31.026;2022-11-27T17:39:31;10.6;8.6;6.8
55857;PMS7003;41779;52.360;31.026;2022-11-27T17:44:55;4;3.4;2.2
55857;PMS7003;41779;52.360;31.026;2022-11-27T17:49:23;3.8;2.8;2.4
55857;PMS7003;41779;52.360;31.026;2022-11-27T17:54:59;3.6;2.2;2
55857;PMS7003;41779;52.360;31.026;2022-11-27T17:59:35;2.8;1.6;1
55857;PMS7003;41779;52.360;31.026;2022-11-27T18:04:59;3;2.2;1.8
55857;PMS7003;41779;52.360;31.026;2022-11-27T18:09:35;3.8;2.6;1.6
55857;PMS7003;41779;52.360;31.026;2022-11-27T18:14:49;5;4;2.4
55857;PMS7003;41779;52.360;31.026;2022-11-27T18:19:31;6.2;4.6;4
55857;PMS7003;41779;52.360;31.026;2022-11-27T18:24:47;5.8;3.5;3.3
55857;PMS7003;41779;52.360;31.026;2022-11-27T18:29:57;5.4;3.6;2.2
55857;PMS7003;41779;52.360;31.026;2022-11-27T18:34:57;6.8;4.8;4.4
55857;PMS7003;41779;52.360;31.026;2022-11-27T18:39:13;7.4;6.2;4.8
55857;PMS7003;41779;52.360;31.026;2022-11-27T18:44:45;15.6;9.6;7.6
55857;PMS7003;41779;52.360;31.026;2022-11-27T18:49:39;33.2;22.6;16.4
55857;PMS7003;41779;52.360;31.026;2022-11-27T18:54:37;39.4;28.8;17.4
55857;PMS7003;41779;52.360;31.026;2022-11-27T18:59:59;60.2;38.2;23
55857;PMS7003;41779;52.360;31.026;2022-11-27T19:04:25;42.6;31.8;18.6
55857;PMS7003;41779;52.360;31.026;2022-11-27T19:10:01;28.6;22.2;15.2
55857;PMS7003;41779;52.360;31.026;2022-11-27T19:14:37;30.4;17;10.4
55857;PMS7003;41779;52.360;31.026;2022-11-27T19:19:45;19.4;13.8;9.8
55857;PMS7003;41779;52.360;31.026;2022-11-27T19:24:21;8.3;6;4.8
55857;PMS7003;41779;52.360;31.026;2022-11-27T19:29:13;5.2;4.4;3.2
55857;PMS7003;41779;52.360;31.026;2022-11-27T19:34:23;3;1.8;1.6
55857;PMS7003;41779;52.360;31.026;2022-11-27T19:39:49;5.2;3.4;2.4
55857;PMS7003;41779;52.360;31.026;2022-11-27T19:44:35;3.6;2;1.6
55857;PMS7003;41779;52.360;31.026;2022-11-27T19:49:59;3.6;2;1.4
55857;PMS7003;41779;52.360;31.026;2022-11-27T19:54:13;1.8;1.2;1.2
55857;PMS7003;41779;52.360;31.026;2022-11-27T19:59:59;3;1.4;1.2
55857;PMS7003;41779;52.360;31.026;2022-11-27T20:04:46;2.8;1.6;1.6
55857;PMS7003;41779;52.360;31.026;2022-11-27T20:09:47;3.4;2.2;1.4
55857;PMS7003;41779;52.360;31.026;2022-11-27T20:14:43;3.4;2.2;1.6
55857;PMS7003;41779;52.360;31.026;2022-11-27T20:19:23;2.8;2.2;2.2
55857;PMS7003;41779;52.360;31.026;2022-11-27T20:24:57;15.5;12.5;9.5
55857;PMS7003;41779;52.360;31.026;2022-11-27T20:29:33;26.4;19.4;13.8
55857;PMS7003;41779;52.360;31.026;2022-11-27T20:34:43;32.8;22;13.4
55857;PMS7003;41779;52.360;31.026;2022-11-27T20:39:33;38.2;25.6;15.4
55857;PMS7003;41779;52.360;31.026;2022-11-27T20:44:23;39.6;28.4;15.6
55857;PMS7003;41779;52.360;31.026;2022-11-27T20:49:33;40.6;26.6;14.6
55857;PMS7003;41779;52.360;31.026;2022-11-27T20:54:49;49.8;34.8;18.8
55857;PMS7003;41779;52.360;31.026;2022-11-27T20:59:23;49.2;36.6;18.8
55857;PMS7003;41779;52.360;31.026;2022-11-27T21:04:49;43.6;29.6;16.4
55857;PMS7003;41779;52.360;31.026;2022-11-27T21:09:33;35;26.4;14.8
55857;PMS7003;41779;52.360;31.026;2022-11-27T21:14:59;18.8;12.8;8.4
55857;PMS7003;41779;52.360;31.026;2022-11-27T21:19:45;20.6;11.8;7.8
55857;PMS7003;41779;52.360;31.026;2022-11-27T21:24:49;15.3;11.5;7.5
55857;PMS7003;41779;52.360;31.026;2022-11-27T21:29:59;19.2;12.6;8.4
55857;PMS7003;41779;52.360;31.026;2022-11-27T21:34:13;34.4;20.8;13.8
55857;PMS7003;41779;52.360;31.026;2022-11-27T21:40:01;26;18;11.8
55857;PMS7003;41779;52.360;31.026;2022-11-27T21:44:35;19.6;14.4;9.4
55857;PMS7003;41779;52.360;31.026;2022-11-27T21:50:01;13;9.6;7
55857;PMS7003;41779;52.360;31.026;2022-11-27T21:54:23;12;8;6
55857;PMS7003;41779;52.360;31.026;2022-11-27T21:59:31;6.8;5.6;4.8
55857;PMS7003;41779;52.360;31.026;2022-11-27T22:04:29;7.8;5;4
55857;PMS7003;41779;52.360;31.026;2022-11-27T22:09:23;8.4;4.8;3.8
55857;PMS7003;41779;52.360;31.026;2022-11-27T22:14:14;7.2;5.2;4
55857;PMS7003;41779;52.360;31.026;2022-11-27T22:19:57;5;3.8;2.8
55857;PMS7003;41779;52.360;31.026;2022-11-27T22:24:13;5.8;2;1.8
55857;PMS7003;41779;52.360;31.026;2022-11-27T22:29:55;6.5;3;2
55857;PMS7003;41779;52.360;31.026;2022-11-27T22:34:41;7.2;5.2;3.8
55857;PMS7003;41779;52.360;31.026;2022-11-27T22:39:45;7.4;5.8;4.8
55857;PMS7003;41779;52.360;31.026;2022-11-27T22:44:41;4.8;4.2;3.8
55857;PMS7003;41779;52.360;31.026;2022-11-27T22:49:14;6.2;3.6;3.2
55857;PMS7003;41779;52.360;31.026;2022-11-27T22:54:53;6.8;5.2;4.4
55857;PMS7003;41779;52.360;31.026;2022-11-27T22:59:29;6;4.2;3.8
55857;PMS7003;41779;52.360;31.026;2022-11-27T23:04:41;5;2.8;2.2
55857;PMS7003;41779;52.360;31.026;2022-11-27T23:09:31;6.4;3.8;2.6
55857;PMS7003;41779;52.360;31.026;2022-11-27T23:14:31;4;3.4;2.4
55857;PMS7003;41779;52.360;31.026;2022-11-27T23:19:13;3;2.6;1.6
55857;PMS7003;41779;52.360;31.026;2022-11-27T23:24:45;5.6;3.4;2.4
55857;PMS7003;41779;52.360;31.026;2022-11-27T23:29:13;4.5;2.3;1.5
55857;PMS7003;41779;52.360;31.026;2022-11-27T23:34:55;2.4;1.2;1.2
55857;PMS7003;41779;52.360;31.026;2022-11-27T23:39:19;2.8;1.2;1.2
55857;PMS7003;41779;52.360;31.026;2022-11-27T23:44:53;3.8;1.8;1.2
55857;PMS7003;41779;52.360;31.026;2022-11-27T23:49:41;2.2;2;1.2
55857;PMS7003;41779;52.360;31.026;2022-11-27T23:54:41;3.2;1.8;1.4
55857;PMS7003;41779;52.360;31.026;2022-11-27T23:59:37;2.6;1.4;0.8
